sensor_id;sensor_type;location;lat;lon;timestamp;pressure;altitude;pressure_sealevel;temperature;humidity
8581;BME280;4328;48.622;9.230;2022-09-12T00:00:33;98181.78;;;15.01;74.86
8581;BME280;4328;48.622;9.230;2022-09-12T00:03:00;98186.19;;;15.02;75.00
8581;BME280;4328;48.622;9.230;2022-09-12T00:05:26;98181.16;;;14.99;74.73
8581;BME280;4328;48.622;9.230;2022-09-12T00:07:53;98171.31;;;14.98;75.07
8581;BME280;4328;48.622;9.230;2022-09-12T00:10:20;98181.16;;;14.99;74.16
8581;BME280;4328;48.622;9.230;2022-09-12T00:12:46;98175.09;;;14.97;74.23
8581;BME280;4328;48.622;9.230;2022-09-12T00:15:13;98179.06;;;14.95;74.64
8581;BME280;4328;48.622;9.230;2022-09-12T00:17:41;98176.78;;;14.85;73.78
8581;BME280;4328;48.622;9.230;2022-09-12T00:20:09;98178.66;;;14.91;74.19
8581;BME280;4328;48.622;9.230;2022-09-12T00:22:36;98174.91;;;14.86;74.40
8581;BME280;4328;48.622;9.230;2022-09-12T00:25:03;98175.53;;;14.81;73.88
8581;BME280;4328;48.622;9.230;2022-09-12T00:27:30;98171.13;;;14.80;74.41
8581;BME280;4328;48.622;9.230;2022-09-12T00:29:57;98175.94;;;14.78;74.33
8581;BME280;4328;48.622;9.230;2022-09-12T00:32:23;98165.66;;;14.80;74.22
8581;BME280;4328;48.622;9.230;2022-09-12T00:34:52;98169.44;;;14.79;74.45
8581;BME280;4328;48.622;9.230;2022-09-12T00:37:18;98163.16;;;14.72;73.96
8581;BME280;4328;48.622;9.230;2022-09-12T00:39:45;98163.38;;;14.64;74.08
8581;BME280;4328;48.622;9.230;2022-09-12T00:42:12;98164.88;;;14.60;74.35
8581;BME280;4328;48.622;9.230;2022-09-12T00:44:43;98159.19;;;14.61;74.33
8581;BME280;4328;48.622;9.230;2022-09-12T00:47:16;98154.34;;;14.63;73.81
8581;BME280;4328;48.622;9.230;2022-09-12T00:49:47;98154.97;;;14.65;74.66
8581;BME280;4328;48.622;9.230;2022-09-12T00:52:20;98158.34;;;14.61;74.38
8581;BME280;4328;48.622;9.230;2022-09-12T00:54:53;98153.31;;;14.58;74.15
8581;BME280;4328;48.622;9.230;2022-09-12T00:57:22;98162.13;;;14.53;74.20
8581;BME280;4328;48.622;9.230;2022-09-12T00:59:53;98145.97;;;14.52;74.38
8581;BME280;4328;48.622;9.230;2022-09-12T01:02:21;98155.63;;;14.48;74.14
8581;BME280;4328;48.622;9.230;2022-09-12T01:04:48;98144.31;;;14.51;74.29
8581;BME280;4328;48.622;9.230;2022-09-12T01:07:14;98149.56;;;14.45;73.96
8581;BME280;4328;48.622;9.230;2022-09-12T01:09:43;98151.44;;;14.45;74.09
8581;BME280;4328;48.622;9.230;2022-09-12T01:12:12;98145.97;;;14.45;73.66
8581;BME280;4328;48.622;9.230;2022-09-12T01:14:40;98148.28;;;14.41;74.34
8581;BME280;4328;48.622;9.230;2022-09-12T01:17:11;98134.22;;;14.44;74.54
8581;BME280;4328;48.622;9.230;2022-09-12T01:19:57;98143.25;;;14.45;73.78
8581;BME280;4328;48.622;9.230;2022-09-12T01:22:48;98139.06;;;14.42;73.76
8581;BME280;4328;48.622;9.230;2022-09-12T01:25:24;98132.78;;;14.49;74.35
8581;BME280;4328;48.622;9.230;2022-09-12T01:28:12;98129.84;;;14.50;73.82
8581;BME280;4328;48.622;9.230;2022-09-12T01:30:50;98132.34;;;14.45;73.72
8581;BME280;4328;48.622;9.230;2022-09-12T01:33:33;98124.34;;;14.37;73.55
8581;BME280;4328;48.622;9.230;2022-09-12T01:36:18;98131.50;;;14.44;73.72
8581;BME280;4328;48.622;9.230;2022-09-12T01:38:48;98129.81;;;14.43;73.46
8581;BME280;4328;48.622;9.230;2022-09-12T01:41:23;98132.56;;;14.43;73.71
8581;BME280;4328;48.622;9.230;2022-09-12T01:43:59;98117.69;;;14.39;73.30
8581;BME280;4328;48.622;9.230;2022-09-12T01:46:31;98135.28;;;14.37;73.44
8581;BME280;4328;48.622;9.230;2022-09-12T01:49:06;98124.34;;;14.37;73.73
8581;BME280;4328;48.622;9.230;2022-09-12T01:51:40;98123.09;;;14.26;73.69
8581;BME280;4328;48.622;9.230;2022-09-12T01:54:09;98123.13;;;14.39;73.72
8581;BME280;4328;48.622;9.230;2022-09-12T01:56:40;98115.75;;;14.33;73.09
8581;BME280;4328;48.622;9.230;2022-09-12T01:59:12;98106.94;;;14.18;73.80
8581;BME280;4328;48.622;9.230;2022-09-12T02:01:46;98102.75;;;14.22;73.59
8581;BME280;4328;48.622;9.230;2022-09-12T02:04:17;98108.81;;;14.18;73.64
8581;BME280;4328;48.622;9.230;2022-09-12T02:06:48;98098.75;;;14.18;73.46
8581;BME280;4328;48.622;9.230;2022-09-12T02:09:19;98110.50;;;14.19;73.51
8581;BME280;4328;48.622;9.230;2022-09-12T02:11:49;98103.38;;;14.18;73.42
8581;BME280;4328;48.622;9.230;2022-09-12T02:14:21;98105.69;;;14.21;72.99
8581;BME280;4328;48.622;9.230;2022-09-12T02:16:53;98101.28;;;14.26;72.78
8581;BME280;4328;48.622;9.230;2022-09-12T02:19:23;98094.56;;;14.22;72.97
8581;BME280;4328;48.622;9.230;2022-09-12T02:21:54;98100.03;;;14.16;72.76
8581;BME280;4328;48.622;9.230;2022-09-12T02:24:24;98101.06;;;14.08;73.00
8581;BME280;4328;48.622;9.230;2022-09-12T02:26:56;98097.31;;;14.09;73.01
8581;BME280;4328;48.622;9.230;2022-09-12T02:29:25;98102.13;;;14.07;73.06
8581;BME280;4328;48.622;9.230;2022-09-12T02:31:56;98103.38;;;14.04;72.75
8581;BME280;4328;48.622;9.230;2022-09-12T02:34:31;98106.34;;;14.03;72.92
8581;BME280;4328;48.622;9.230;2022-09-12T02:37:06;98103.19;;;13.99;73.02
8581;BME280;4328;48.622;9.230;2022-09-12T02:39:35;98097.09;;;13.97;73.50
8581;BME280;4328;48.622;9.230;2022-09-12T02:42:03;98091.66;;;13.97;73.11
8581;BME280;4328;48.622;9.230;2022-09-12T02:44:31;98092.91;;;14.01;73.19
8581;BME280;4328;48.622;9.230;2022-09-12T02:47:03;98083.91;;;14.01;73.06
8581;BME280;4328;48.622;9.230;2022-09-12T02:49:31;98080.09;;;13.95;73.13
8581;BME280;4328;48.622;9.230;2022-09-12T02:51:58;98081.78;;;13.96;73.44
8581;BME280;4328;48.622;9.230;2022-09-12T02:54:27;98084.09;;;13.93;73.07
8581;BME280;4328;48.622;9.230;2022-09-12T02:56:54;98084.31;;;13.85;72.70
8581;BME280;4328;48.622;9.230;2022-09-12T02:59:22;98085.13;;;13.85;73.15
8581;BME280;4328;48.622;9.230;2022-09-12T03:02:13;98075.72;;;13.88;73.04
8581;BME280;4328;48.622;9.230;2022-09-12T03:04:52;98073.19;;;13.86;73.69
8581;BME280;4328;48.622;9.230;2022-09-12T03:07:31;98076.53;;;13.95;73.42
8581;BME280;4328;48.622;9.230;2022-09-12T03:10:08;98078.22;;;13.89;73.38
8581;BME280;4328;48.622;9.230;2022-09-12T03:12:46;98076.97;;;13.85;74.02
8581;BME280;4328;48.622;9.230;2022-09-12T03:15:26;98085.34;;;13.84;73.82
8581;BME280;4328;48.622;9.230;2022-09-12T03:18:05;98082.41;;;13.85;73.51
8581;BME280;4328;48.622;9.230;2022-09-12T03:20:42;98082.44;;;13.79;73.58
8581;BME280;4328;48.622;9.230;2022-09-12T03:23:18;64081.09;;;-143.67;100.00
8581;BME280;4328;48.622;9.230;2022-09-12T03:25:49;64081.09;;;-143.67;100.00
8581;BME280;4328;48.622;9.230;2022-09-12T03:28:19;64081.09;;;-143.67;100.00
8581;BME280;4328;48.622;9.230;2022-09-12T03:30:48;64081.09;;;-143.67;100.00
8581;BME280;4328;48.622;9.230;2022-09-12T03:33:18;64081.09;;;-143.67;100.00
8581;BME280;4328;48.622;9.230;2022-09-12T03:35:46;64081.09;;;-143.67;100.00
8581;BME280;4328;48.622;9.230;2022-09-12T03:38:13;64081.09;;;-143.67;100.00
8581;BME280;4328;48.622;9.230;2022-09-12T03:40:40;64081.09;;;-143.67;100.00
8581;BME280;4328;48.622;9.230;2022-09-12T03:43:08;64081.09;;;-143.67;100.00
8581;BME280;4328;48.622;9.230;2022-09-12T03:45:35;64081.09;;;-143.67;100.00
8581;BME280;4328;48.622;9.230;2022-09-12T03:48:03;64081.09;;;-143.67;100.00
8581;BME280;4328;48.622;9.230;2022-09-12T03:50:31;64081.09;;;-143.67;100.00
8581;BME280;4328;48.622;9.230;2022-09-12T03:52:58;64081.09;;;-143.67;100.00
8581;BME280;4328;48.622;9.230;2022-09-12T03:55:25;64081.09;;;-143.67;100.00
8581;BME280;4328;48.622;9.230;2022-09-12T03:57:52;64081.09;;;-143.67;100.00
8581;BME280;4328;48.622;9.230;2022-09-12T04:00:19;64081.09;;;-143.67;100.00
8581;BME280;4328;48.622;9.230;2022-09-12T04:02:45;64081.09;;;-143.67;100.00
8581;BME280;4328;48.622;9.230;2022-09-12T04:05:12;64081.09;;;-143.67;100.00
8581;BME280;4328;48.622;9.230;2022-09-12T04:07:40;64081.09;;;-143.67;100.00
8581;BME280;4328;48.622;9.230;2022-09-12T04:10:07;64081.09;;;-143.67;100.00
8581;BME280;4328;48.622;9.230;2022-09-12T04:12:34;64081.09;;;-143.67;100.00
8581;BME280;4328;48.622;9.230;2022-09-12T04:15:00;64081.09;;;-143.67;100.00
8581;BME280;4328;48.622;9.230;2022-09-12T04:17:27;64081.09;;;-143.67;100.00
8581;BME280;4328;48.622;9.230;2022-09-12T04:19:54;64081.09;;;-143.67;100.00
8581;BME280;4328;48.622;9.230;2022-09-12T04:22:20;64081.09;;;-143.67;100.00
8581;BME280;4328;48.622;9.230;2022-09-12T04:24:48;64081.09;;;-143.67;100.00
8581;BME280;4328;48.622;9.230;2022-09-12T04:27:15;64081.09;;;-143.67;100.00
8581;BME280;4328;48.622;9.230;2022-09-12T04:29:41;64081.09;;;-143.67;100.00
8581;BME280;4328;48.622;9.230;2022-09-12T04:32:08;64081.09;;;-143.67;100.00
8581;BME280;4328;48.622;9.230;2022-09-12T04:34:35;64081.09;;;-143.67;100.00
8581;BME280;4328;48.622;9.230;2022-09-12T04:37:01;64081.09;;;-143.67;100.00
8581;BME280;4328;48.622;9.230;2022-09-12T04:39:28;64081.09;;;-143.67;100.00
8581;BME280;4328;48.622;9.230;2022-09-12T04:41:56;64081.09;;;-143.67;100.00
8581;BME280;4328;48.622;9.230;2022-09-12T04:44:22;64081.09;;;-143.67;100.00
8581;BME280;4328;48.622;9.230;2022-09-12T04:46:49;64081.09;;;-143.67;100.00
8581;BME280;4328;48.622;9.230;2022-09-12T04:49:17;64081.09;;;-143.67;100.00
8581;BME280;4328;48.622;9.230;2022-09-12T04:51:44;64081.09;;;-143.67;100.00
8581;BME280;4328;48.622;9.230;2022-09-12T04:54:12;64081.09;;;-143.67;100.00
8581;BME280;4328;48.622;9.230;2022-09-12T04:56:41;64081.09;;;-143.67;100.00
8581;BME280;4328;48.622;9.230;2022-09-12T04:59:11;64081.09;;;-143.67;100.00
8581;BME280;4328;48.622;9.230;2022-09-12T05:01:39;64081.09;;;-143.67;100.00
8581;BME280;4328;48.622;9.230;2022-09-12T05:04:05;64081.09;;;-143.67;100.00
8581;BME280;4328;48.622;9.230;2022-09-12T05:06:34;64081.09;;;-143.67;100.00
8581;BME280;4328;48.622;9.230;2022-09-12T05:09:03;64081.09;;;-143.67;100.00
8581;BME280;4328;48.622;9.230;2022-09-12T05:11:32;64081.09;;;-143.67;100.00
8581;BME280;4328;48.622;9.230;2022-09-12T05:13:59;64081.09;;;-143.67;100.00
8581;BME280;4328;48.622;9.230;2022-09-12T05:16:27;64081.09;;;-143.67;100.00
8581;BME280;4328;48.622;9.230;2022-09-12T05:18:55;64081.09;;;-143.67;100.00
8581;BME280;4328;48.622;9.230;2022-09-12T05:21:23;64081.09;;;-143.67;100.00
8581;BME280;4328;48.622;9.230;2022-09-12T05:23:50;64081.09;;;-143.67;100.00
8581;BME280;4328;48.622;9.230;2022-09-12T05:26:18;64081.09;;;-143.67;100.00
8581;BME280;4328;48.622;9.230;2022-09-12T05:28:46;64081.09;;;-143.67;100.00
8581;BME280;4328;48.622;9.230;2022-09-12T05:31:16;64081.09;;;-143.67;100.00
8581;BME280;4328;48.622;9.230;2022-09-12T05:33:46;64081.09;;;-143.67;100.00
8581;BME280;4328;48.622;9.230;2022-09-12T05:36:15;64081.09;;;-143.67;100.00
8581;BME280;4328;48.622;9.230;2022-09-12T05:38:42;64081.09;;;-143.67;100.00
8581;BME280;4328;48.622;9.230;2022-09-12T05:41:10;64081.09;;;-143.67;100.00
8581;BME280;4328;48.622;9.230;2022-09-12T05:43:38;64081.09;;;-143.67;100.00
8581;BME280;4328;48.622;9.230;2022-09-12T05:46:07;64081.09;;;-143.67;100.00
8581;BME280;4328;48.622;9.230;2022-09-12T05:48:34;64081.09;;;-143.67;100.00
8581;BME280;4328;48.622;9.230;2022-09-12T05:51:05;64081.09;;;-143.67;100.00
8581;BME280;4328;48.622;9.230;2022-09-12T05:53:34;64081.09;;;-143.67;100.00
8581;BME280;4328;48.622;9.230;2022-09-12T05:56:06;64081.09;;;-143.67;100.00
8581;BME280;4328;48.622;9.230;2022-09-12T05:58:34;64081.09;;;-143.67;100.00
8581;BME280;4328;48.622;9.230;2022-09-12T06:01:03;64081.09;;;-143.67;100.00
8581;BME280;4328;48.622;9.230;2022-09-12T06:03:31;64081.09;;;-143.67;100.00
8581;BME280;4328;48.622;9.230;2022-09-12T06:06:02;64081.09;;;-143.67;100.00
8581;BME280;4328;48.622;9.230;2022-09-12T06:08:30;64081.09;;;-143.67;100.00
8581;BME280;4328;48.622;9.230;2022-09-12T06:11:00;64081.09;;;-143.67;100.00
8581;BME280;4328;48.622;9.230;2022-09-12T06:13:27;64081.09;;;-143.67;100.00
8581;BME280;4328;48.622;9.230;2022-09-12T06:16:01;64081.09;;;-143.67;100.00
8581;BME280;4328;48.622;9.230;2022-09-12T06:18:28;64081.09;;;-143.67;100.00
8581;BME280;4328;48.622;9.230;2022-09-12T06:20:55;64081.09;;;-143.67;100.00
8581;BME280;4328;48.622;9.230;2022-09-12T06:23:23;64081.09;;;-143.67;100.00
8581;BME280;4328;48.622;9.230;2022-09-12T06:25:51;64081.09;;;-143.67;100.00
8581;BME280;4328;48.622;9.230;2022-09-12T06:28:17;64081.09;;;-143.67;100.00
8581;BME280;4328;48.622;9.230;2022-09-12T06:30:44;64081.09;;;-143.67;100.00
8581;BME280;4328;48.622;9.230;2022-09-12T06:33:11;64081.09;;;-143.67;100.00
8581;BME280;4328;48.622;9.230;2022-09-12T06:35:37;98067.75;;;21.65;55.63
8581;BME280;4328;48.622;9.230;2022-09-12T06:38:04;98057.53;;;25.02;48.73
8581;BME280;4328;48.622;9.230;2022-09-12T06:40:32;98069.28;;;27.71;42.63
8581;BME280;4328;48.622;9.230;2022-09-12T06:42:59;98054.41;;;29.79;39.17
8581;BME280;4328;48.622;9.230;2022-09-12T06:45:26;98058.72;;;31.10;36.53
8581;BME280;4328;48.622;9.230;2022-09-12T06:47:53;98063.13;;;32.68;34.38
8581;BME280;4328;48.622;9.230;2022-09-12T06:50:20;98064.63;;;33.97;32.54
8581;BME280;4328;48.622;9.230;2022-09-12T06:52:48;98065.31;;;35.34;30.87
8581;BME280;4328;48.622;9.230;2022-09-12T06:55:15;98062.97;;;36.09;29.75
8581;BME280;4328;48.622;9.230;2022-09-12T06:57:43;98068.00;;;36.56;29.39
8581;BME280;4328;48.622;9.230;2022-09-12T07:00:11;98038.72;;;37.04;28.76
8581;BME280;4328;48.622;9.230;2022-09-12T07:02:37;98071.13;;;37.38;28.06
8581;BME280;4328;48.622;9.230;2022-09-12T07:05:05;98063.13;;;37.91;27.64
8581;BME280;4328;48.622;9.230;2022-09-12T07:07:32;98068.66;;;38.54;27.25
8581;BME280;4328;48.622;9.230;2022-09-12T07:10:00;98053.31;;;38.39;27.27
8581;BME280;4328;48.622;9.230;2022-09-12T07:12:27;98052.44;;;38.74;26.58
8581;BME280;4328;48.622;9.230;2022-09-12T07:14:55;98046.63;;;39.51;26.04
8581;BME280;4328;48.622;9.230;2022-09-12T07:17:22;98044.41;;;39.41;26.19
8581;BME280;4328;48.622;9.230;2022-09-12T07:19:48;98036.13;;;40.04;25.87
8581;BME280;4328;48.622;9.230;2022-09-12T07:22:15;98030.38;;;40.57;25.59
8581;BME280;4328;48.622;9.230;2022-09-12T07:24:41;98025.75;;;40.79;25.58
8581;BME280;4328;48.622;9.230;2022-09-12T07:27:10;98026.22;;;41.69;25.57
8581;BME280;4328;48.622;9.230;2022-09-12T07:29:36;98021.09;;;41.92;24.42
8581;BME280;4328;48.622;9.230;2022-09-12T07:32:05;98031.69;;;41.88;24.16
8581;BME280;4328;48.622;9.230;2022-09-12T07:34:33;98023.41;;;41.72;24.54
8581;BME280;4328;48.622;9.230;2022-09-12T07:36:59;98017.38;;;42.46;24.01
8581;BME280;4328;48.622;9.230;2022-09-12T07:39:26;98016.91;;;42.37;24.40
8581;BME280;4328;48.622;9.230;2022-09-12T07:41:52;98012.84;;;42.35;24.43
8581;BME280;4328;48.622;9.230;2022-09-12T07:44:19;98019.03;;;41.34;25.14
8581;BME280;4328;48.622;9.230;2022-09-12T07:46:47;98009.94;;;40.18;26.12
8581;BME280;4328;48.622;9.230;2022-09-12T07:49:16;98013.84;;;40.06;26.34
8581;BME280;4328;48.622;9.230;2022-09-12T07:51:42;98011.69;;;39.96;26.75
8581;BME280;4328;48.622;9.230;2022-09-12T07:54:09;98015.28;;;40.23;26.59
8581;BME280;4328;48.622;9.230;2022-09-12T07:56:36;98012.28;;;37.94;28.29
8581;BME280;4328;48.622;9.230;2022-09-12T07:59:02;98014.31;;;36.84;29.88
8581;BME280;4328;48.622;9.230;2022-09-12T08:01:29;98016.06;;;35.93;31.09
8581;BME280;4328;48.622;9.230;2022-09-12T08:03:57;98017.03;;;35.60;31.60
8581;BME280;4328;48.622;9.230;2022-09-12T08:06:27;98021.53;;;36.97;30.94
8581;BME280;4328;48.622;9.230;2022-09-12T08:08:57;98016.25;;;39.28;28.92
8581;BME280;4328;48.622;9.230;2022-09-12T08:11:25;98015.47;;;40.33;27.42
8581;BME280;4328;48.622;9.230;2022-09-12T08:13:53;98008.84;;;40.93;26.24
8581;BME280;4328;48.622;9.230;2022-09-12T08:16:22;98004.75;;;41.75;25.66
8581;BME280;4328;48.622;9.230;2022-09-12T08:18:49;98009.28;;;42.59;25.41
8581;BME280;4328;48.622;9.230;2022-09-12T08:21:18;98006.22;;;43.71;24.57
8581;BME280;4328;48.622;9.230;2022-09-12T08:23:46;98000.50;;;43.71;24.04
8581;BME280;4328;48.622;9.230;2022-09-12T08:26:16;97996.44;;;43.26;24.67
8581;BME280;4328;48.622;9.230;2022-09-12T08:28:44;97996.84;;;43.74;24.64
8581;BME280;4328;48.622;9.230;2022-09-12T08:31:13;97989.22;;;44.61;24.04
8581;BME280;4328;48.622;9.230;2022-09-12T08:33:40;97988.25;;;43.49;24.89
8581;BME280;4328;48.622;9.230;2022-09-12T08:36:09;97998.41;;;43.04;24.56
8581;BME280;4328;48.622;9.230;2022-09-12T08:38:37;97993.03;;;42.70;26.12
8581;BME280;4328;48.622;9.230;2022-09-12T08:41:11;97996.31;;;44.21;25.01
8581;BME280;4328;48.622;9.230;2022-09-12T08:43:59;97988.09;;;44.45;24.22
8581;BME280;4328;48.622;9.230;2022-09-12T08:46:35;97984.13;;;44.97;23.47
8581;BME280;4328;48.622;9.230;2022-09-12T08:49:06;97980.56;;;44.79;23.49
8581;BME280;4328;48.622;9.230;2022-09-12T08:51:36;97985.84;;;43.19;24.42
8581;BME280;4328;48.622;9.230;2022-09-12T08:54:17;97983.00;;;42.11;25.44
8581;BME280;4328;48.622;9.230;2022-09-12T08:56:47;97987.41;;;40.65;26.83
8581;BME280;4328;48.622;9.230;2022-09-12T08:59:13;97975.28;;;38.84;28.64
8581;BME280;4328;48.622;9.230;2022-09-12T09:01:42;97987.66;;;37.29;31.18
8581;BME280;4328;48.622;9.230;2022-09-12T09:04:28;97987.78;;;34.71;33.89
8581;BME280;4328;48.622;9.230;2022-09-12T09:07:26;97985.75;;;32.96;36.85
8581;BME280;4328;48.622;9.230;2022-09-12T09:10:06;97985.06;;;31.67;38.12
8581;BME280;4328;48.622;9.230;2022-09-12T09:12:41;97983.34;;;30.92;39.45
8581;BME280;4328;48.622;9.230;2022-09-12T09:15:22;97987.91;;;30.79;40.66
8581;BME280;4328;48.622;9.230;2022-09-12T09:17:54;97989.75;;;30.30;40.36
8581;BME280;4328;48.622;9.230;2022-09-12T09:20:26;97985.81;;;31.24;39.42
8581;BME280;4328;48.622;9.230;2022-09-12T09:22:57;97894.34;;;30.40;39.15
8581;BME280;4328;48.622;9.230;2022-09-12T09:25:36;97977.00;;;30.46;40.09
8581;BME280;4328;48.622;9.230;2022-09-12T09:28:09;97981.31;;;30.83;39.53
8581;BME280;4328;48.622;9.230;2022-09-12T09:30:45;97974.91;;;30.83;39.00
8581;BME280;4328;48.622;9.230;2022-09-12T09:33:19;97978.84;;;30.51;39.07
8581;BME280;4328;48.622;9.230;2022-09-12T09:35:49;97973.81;;;29.95;39.92
8581;BME280;4328;48.622;9.230;2022-09-12T09:38:25;97983.28;;;29.85;40.89
8581;BME280;4328;48.622;9.230;2022-09-12T09:41:10;97975.94;;;30.56;39.55
8581;BME280;4328;48.622;9.230;2022-09-12T09:43:43;97977.66;;;30.43;38.75
8581;BME280;4328;48.622;9.230;2022-09-12T09:46:10;97976.91;;;29.71;38.99
8581;BME280;4328;48.622;9.230;2022-09-12T09:48:41;97978.31;;;29.46;40.60
8581;BME280;4328;48.622;9.230;2022-09-12T09:51:09;97976.25;;;29.74;40.26
8581;BME280;4328;48.622;9.230;2022-09-12T09:53:42;97987.31;;;29.29;40.95
8581;BME280;4328;48.622;9.230;2022-09-12T09:56:15;97985.34;;;29.16;41.57
8581;BME280;4328;48.622;9.230;2022-09-12T09:58:51;97982.59;;;29.02;40.90
8581;BME280;4328;48.622;9.230;2022-09-12T10:01:18;97971.69;;;28.73;41.03
8581;BME280;4328;48.622;9.230;2022-09-12T10:03:49;97967.53;;;28.57;41.37
8581;BME280;4328;48.622;9.230;2022-09-12T10:06:27;97974.00;;;28.85;41.41
8581;BME280;4328;48.622;9.230;2022-09-12T10:09:05;97973.75;;;28.54;42.14
8581;BME280;4328;48.622;9.230;2022-09-12T10:11:33;97961.13;;;28.43;41.67
8581;BME280;4328;48.622;9.230;2022-09-12T10:14:01;97970.28;;;28.30;42.55
8581;BME280;4328;48.622;9.230;2022-09-12T10:16:30;97969.97;;;28.31;41.91
8581;BME280;4328;48.622;9.230;2022-09-12T10:18:59;97966.94;;;27.95;41.64
8581;BME280;4328;48.622;9.230;2022-09-12T10:21:31;97969.03;;;28.03;42.30
8581;BME280;4328;48.622;9.230;2022-09-12T10:24:05;97959.72;;;27.94;43.17
8581;BME280;4328;48.622;9.230;2022-09-12T10:26:39;97956.22;;;28.02;42.54
8581;BME280;4328;48.622;9.230;2022-09-12T10:29:12;97961.03;;;27.97;42.45
8581;BME280;4328;48.622;9.230;2022-09-12T10:31:43;97936.47;;;27.48;43.55
8581;BME280;4328;48.622;9.230;2022-09-12T10:34:25;97957.09;;;27.47;44.14
8581;BME280;4328;48.622;9.230;2022-09-12T10:37:02;97959.53;;;27.72;44.81
8581;BME280;4328;48.622;9.230;2022-09-12T10:39:31;97959.66;;;27.62;43.59
8581;BME280;4328;48.622;9.230;2022-09-12T10:41:59;97957.50;;;27.59;44.04
8581;BME280;4328;48.622;9.230;2022-09-12T10:44:28;97956.59;;;27.40;43.48
8581;BME280;4328;48.622;9.230;2022-09-12T10:46:57;97951.72;;;27.13;43.23
8581;BME280;4328;48.622;9.230;2022-09-12T10:49:27;97952.53;;;27.13;44.07
8581;BME280;4328;48.622;9.230;2022-09-12T10:51:54;97957.34;;;27.26;44.14
8581;BME280;4328;48.622;9.230;2022-09-12T10:54:25;97959.00;;;27.27;43.52
8581;BME280;4328;48.622;9.230;2022-09-12T10:57:19;97951.91;;;27.59;43.41
8581;BME280;4328;48.622;9.230;2022-09-12T11:00:04;97937.22;;;27.72;43.66
8581;BME280;4328;48.622;9.230;2022-09-12T11:02:46;97940.25;;;27.57;43.48
8581;BME280;4328;48.622;9.230;2022-09-12T11:05:21;97933.38;;;27.49;44.11
8581;BME280;4328;48.622;9.230;2022-09-12T11:08:02;97937.13;;;27.40;43.63
8581;BME280;4328;48.622;9.230;2022-09-12T11:10:42;97933.13;;;27.27;44.39
8581;BME280;4328;48.622;9.230;2022-09-12T11:13:20;97926.91;;;27.35;44.87
8581;BME280;4328;48.622;9.230;2022-09-12T11:16:00;97919.88;;;27.19;44.74
8581;BME280;4328;48.622;9.230;2022-09-12T11:18:42;97919.00;;;27.23;44.87
8581;BME280;4328;48.622;9.230;2022-09-12T11:21:22;97920.72;;;27.19;44.61
8581;BME280;4328;48.622;9.230;2022-09-12T11:24:04;97910.72;;;27.18;44.52
8581;BME280;4328;48.622;9.230;2022-09-12T11:26:46;97909.53;;;27.24;44.02
8581;BME280;4328;48.622;9.230;2022-09-12T11:29:22;97913.66;;;27.46;43.76
8581;BME280;4328;48.622;9.230;2022-09-12T11:32:09;97903.47;;;27.17;44.51
8581;BME280;4328;48.622;9.230;2022-09-12T11:34:49;97906.41;;;27.07;44.14
8581;BME280;4328;48.622;9.230;2022-09-12T11:40:22;97907.09;;;27.18;45.04
8581;BME280;4328;48.622;9.230;2022-09-12T11:42:54;97897.09;;;27.17;44.82
8581;BME280;4328;48.622;9.230;2022-09-12T11:45:27;97884.22;;;27.40;43.85
8581;BME280;4328;48.622;9.230;2022-09-12T11:47:58;97890.53;;;27.26;43.75
8581;BME280;4328;48.622;9.230;2022-09-12T11:50:29;97898.66;;;27.04;44.53
8581;BME280;4328;48.622;9.230;2022-09-12T11:53:02;97891.00;;;26.91;43.39
8581;BME280;4328;48.622;9.230;2022-09-12T11:55:43;97883.63;;;27.05;43.30
8581;BME280;4328;48.622;9.230;2022-09-12T11:58:13;97896.16;;;27.03;42.72
8581;BME280;4328;48.622;9.230;2022-09-12T12:00:43;97884.84;;;26.99;42.94
8581;BME280;4328;48.622;9.230;2022-09-12T12:03:19;97881.88;;;26.90;43.22
8581;BME280;4328;48.622;9.230;2022-09-12T12:05:50;97884.97;;;27.08;42.36
8581;BME280;4328;48.622;9.230;2022-09-12T12:08:20;97874.47;;;27.23;41.79
8581;BME280;4328;48.622;9.230;2022-09-12T12:10:49;97875.28;;;27.43;40.22
8581;BME280;4328;48.622;9.230;2022-09-12T12:13:22;97873.47;;;27.33;38.74
8581;BME280;4328;48.622;9.230;2022-09-12T12:15:54;97881.13;;;27.04;38.45
8581;BME280;4328;48.622;9.230;2022-09-12T12:18:24;97872.03;;;26.98;39.89
8581;BME280;4328;48.622;9.230;2022-09-12T12:20:53;97874.16;;;27.06;40.28
8581;BME280;4328;48.622;9.230;2022-09-12T12:23:26;97873.13;;;27.02;38.97
8581;BME280;4328;48.622;9.230;2022-09-12T12:25:55;97867.31;;;26.99;40.73
8581;BME280;4328;48.622;9.230;2022-09-12T12:28:57;97857.47;;;27.25;40.37
8581;BME280;4328;48.622;9.230;2022-09-12T12:31:27;97856.25;;;27.12;40.47
8581;BME280;4328;48.622;9.230;2022-09-12T12:34:03;97855.56;;;27.20;41.09
8581;BME280;4328;48.622;9.230;2022-09-12T12:36:34;97853.69;;;27.16;41.35
8581;BME280;4328;48.622;9.230;2022-09-12T12:48:59;97839.56;;;27.12;39.99
8581;BME280;4328;48.622;9.230;2022-09-12T12:51:32;97835.28;;;27.01;41.48
8581;BME280;4328;48.622;9.230;2022-09-12T12:54:02;97836.31;;;27.05;41.56
8581;BME280;4328;48.622;9.230;2022-09-12T12:56:38;97830.22;;;27.03;41.54
8581;BME280;4328;48.622;9.230;2022-09-12T12:59:16;97832.56;;;26.96;41.77
8581;BME280;4328;48.622;9.230;2022-09-12T13:01:46;97832.53;;;27.15;41.25
8581;BME280;4328;48.622;9.230;2022-09-12T13:04:17;97839.53;;;26.93;41.43
8581;BME280;4328;48.622;9.230;2022-09-12T13:06:53;97836.88;;;26.83;41.92
8581;BME280;4328;48.622;9.230;2022-09-12T13:09:24;97821.22;;;26.69;43.12
8581;BME280;4328;48.622;9.230;2022-09-12T13:11:58;97829.22;;;26.75;43.09
8581;BME280;4328;48.622;9.230;2022-09-12T13:14:35;97823.66;;;26.75;42.35
8581;BME280;4328;48.622;9.230;2022-09-12T13:17:04;97816.66;;;26.78;42.75
8581;BME280;4328;48.622;9.230;2022-09-12T13:19:35;97812.81;;;26.74;42.85
8581;BME280;4328;48.622;9.230;2022-09-12T13:22:04;97812.59;;;26.89;43.46
8581;BME280;4328;48.622;9.230;2022-09-12T13:24:31;97812.56;;;26.70;44.02
8581;BME280;4328;48.622;9.230;2022-09-12T13:26:58;97802.47;;;26.55;42.63
8581;BME280;4328;48.622;9.230;2022-09-12T13:29:26;97794.22;;;26.50;41.94
8581;BME280;4328;48.622;9.230;2022-09-12T13:31:55;97810.91;;;26.50;41.88
8581;BME280;4328;48.622;9.230;2022-09-12T13:34:25;97805.94;;;26.47;42.15
8581;BME280;4328;48.622;9.230;2022-09-12T13:37:16;97796.84;;;26.42;42.19
8581;BME280;4328;48.622;9.230;2022-09-12T13:39:47;97777.53;;;26.26;42.82
8581;BME280;4328;48.622;9.230;2022-09-12T13:45:12;97797.44;;;26.39;43.00
8581;BME280;4328;48.622;9.230;2022-09-12T13:47:41;97800.38;;;26.23;41.67
8581;BME280;4328;48.622;9.230;2022-09-12T13:50:14;97756.03;;;25.89;43.66